Weather observations for the past three days for
New York City, Central Park
Metric (Imperial)
Date Time (edt) Wind (kph) Vis. (km) Weather Sky Cond. Temperature (ºC) Relative Humidity Wind Chill (°C) Heat Index (°C) Pressure Precipitation (cm)
Air Dwpt 6 hour altimeter (cm) sea level (mb) 1 hr 3 hr 6 hr
Max. Min.
02 23:51 Calm 12.87 Overcast OVC010 20 19.4 96% 76.45 1018.4
02 22:51 Calm 16.09 Overcast OVC012 20 19.4 96% 76.43 1018.2
02 21:51 Vrbl 7 16.09 Overcast OVC012 20 18.9 93% 76.45 1018.4
02 20:51 NE 6 16.09 Overcast OVC014 19.4 18.9 97% 76.53 1019.3
02 19:51 Vrbl 6 16.09 Overcast BKN013 BKN025 OVC037 19.4 18.9 21.7 19.4 97% 76.48 1018.7 0.64
02 18:51 E 11 16.09 Overcast OVC039 20 18.9 93% 76.48 1018.8
02 17:51 Calm 16.09 Overcast SCT024 OVC039 20 18.9 93% 76.56 1019.7
02 16:51 NE 9 14.48 Overcast BKN009 OVC016 20 19.4 96% 76.53 1019.4 0.64
02 15:51 NE 9 8.05 Light Rain Fog/Mist FEW009 BKN041 OVC049 20 19.4 96% 76.56 1019.7 0.64
02 14:51 N 9 2.82 Heavy Rain Fog/Mist OVC026 20.6 18.9 90% 76.56 1019.7
02 13:51 Calm 16.09 Overcast BKN032 OVC041 21.1 17.8 21.7 18.9 82% 76.58 1020.0
02 12:51 Calm 16.09 Overcast OVC027 21.1 16.7 76% 76.63 1020.6
02 11:51 Vrbl 6 16.09 Overcast BKN023 OVC031 20.6 16.7 78% 76.63 1020.7
02 10:51 Calm 16.09 Overcast OVC020 20 17.2 84% 76.63 1020.6
02 09:51 NE 9 16.09 Overcast OVC019 20 16.1 78% 76.63 1020.7
02 08:51 E 13 11.27 Overcast SCT006 OVC014 19.4 18.3 93% 76.61 1020.3
02 07:51 E 7 12.87 Overcast OVC010 18.9 17.8 19.4 18.3 93% 76.58 1019.9
02 06:51 Vrbl 9 9.66 Fog/Mist OVC005 18.3 18.3 100% 76.56 1019.9
02 05:51 E 15 9.66 Fog/Mist OVC005 18.9 18.3 96% 76.53 1019.2
02 04:51 E 7 4.02 Fog/Mist OVC004 18.9 18.3 96% 76.5 1019.1
02 03:51 NE 13 12.87 Overcast OVC006 18.9 18.3 96% 76.48 1018.6
02 02:51 E 15 16.09 Overcast OVC011 19.4 18.3 93% 76.43 1018.1
02 01:51 E 7 11.27 Overcast OVC008 19.4 18.9 22.2 19.4 97% 76.45 1018.4
02 00:51 E 13 12.87 Overcast OVC009 19.4 18.9 97% 76.45 1018.3
01 23:51 NE 19 G 33 14.48 Overcast OVC009 20 18.9 93% 76.4 1017.8
01 22:51 NE 19 G 48 6.44 Fog/Mist OVC009 20 18.9 93% 76.38 1017.4
01 21:51 E 15 G 46 14.48 Overcast OVC009 20 18.9 93% 76.33 1016.6
01 20:51 E 19 G 35 11.27 Overcast OVC008 20.6 20 96% 76.25 1015.6
01 19:51 E 15 G 33 6.44 Light Rain Fog/Mist BKN007 OVC011 22.2 21.7 27.8 22.2 97% 76.2 1015.0 0.38 0.43
01 18:51 Vrbl 6 4.02 Light Rain Fog/Mist FEW010 BKN019 OVC031 23.9 23.3 96% 23 76.15 1014.3 0.05
01 17:51 E 13 4.83 Light Rain Fog/Mist SCT031 BKN039 OVC065 25 23.3 90% 26 76.12 1013.8
01 16:51 E 13 8.05 Mostly Cloudy with Haze SCT027 BKN032 BKN040 26.7 23.3 82% 29 76.12 1013.7
01 15:51 Calm 9.66 Mostly Cloudy with Haze FEW023 BKN065 27.2 23.9 82% 30 76.12 1013.7
01 14:51 Calm 9.66 Overcast with Haze OVC075 26.1 22.8 82% 28 76.12 1014.0
01 13:51 NE 6 8.05 Fog/Mist FEW035 SCT095 SCT110 25.6 23.9 25.6 21.7 90% 27 76.15 1014.0 0.03 0.28
01 12:51 Calm 2.41 Fog/Mist BKN090 24.4 23.9 97% 24 76.2 1014.9 0.03
01 11:51 Calm 1.61 Light Rain Fog/Mist FEW044 BKN080 OVC090 22.8 22.8 100% 76.25 1015.8 0.2
01 10:51 Vrbl 6 4.02 Fog/Mist FEW026 SCT065 BKN100 23.3 22.8 97% 76.3 1016.2 0.03 0.03
01 09:51 Calm 4.83 Fog/Mist FEW010 FEW065 BKN095 23.3 22.2 94% 76.25 1015.7
01 08:51 Calm 2.82 Fog/Mist BKN095 OVC110 22.8 22.8 100% 76.28 1015.9
01 07:51 Calm 2.82 Light Rain Fog/Mist FEW012 BKN090 OVC110 22.2 21.7 22.2 20.6 97% 76.28 1016.1 0.13
01 06:51 Calm 3.22 Fog/Mist FEW010 SCT075 BKN090 21.7 21.7 100% 76.28 1016.1
01 05:51 Calm 4.83 Fog/Mist BKN011 21.7 21.1 96% 76.28 1015.9
01 04:51 Calm 4.83 Fog/Mist BKN011 21.1 21.1 100% 76.3 1016.2 0.05 0.13
01 03:51 Calm 3.22 Light Rain Fog/Mist OVC010 21.1 21.1 100% 76.3 1016.4 0.03
01 02:51 Vrbl 9 3.22 Light Rain Fog/Mist OVC012 21.1 20.6 97% 76.33 1016.5 0.05
01 01:51 Calm 4.83 Light Rain Fog/Mist OVC016 20.6 20.6 22.2 20.6 100% 76.35 1017.0 0.28 0.36
01 00:51 Calm 6.44 Light Rain Fog/Mist OVC020 21.1 20 93% 76.4 1017.5 0.05
31 23:51 Calm 16.09 Light Rain BKN038 OVC050 21.7 19.4 87% 76.4 1017.7
31 22:51 Vrbl 6 16.09 Overcast SCT046 OVC060 21.7 18.9 84% 76.43 1018.1 0.03
31 21:51 Calm 16.09 Overcast OVC047 21.7 18.9 84% 76.45 1018.4 0.03
31 20:51 Vrbl 7 16.09 Light Rain OVC060 21.7 18.9 84% 76.45 1018.3
31 19:51 Calm 16.09 Overcast SCT050 OVC065 22.8 18.9 25 22.8 79% 76.43 1018.2
31 18:51 Calm 16.09 Overcast FEW028 OVC060 22.8 18.9 79% 76.45 1018.4
31 17:51 Calm 16.09 Overcast OVC050 23.3 18.3 74% 76.48 1018.6
31 16:51 Calm 16.09 Mostly Cloudy SCT035 BKN049 23.3 18.9 76% 76.48 1018.8
31 15:51 SE 7 16.09 Overcast OVC045 23.3 17.8 71% 76.53 1019.2
31 14:51 Calm 16.09 Overcast OVC037 23.9 18.3 71% 25 76.56 1019.6
31 13:51 Calm 16.09 Mostly Cloudy BKN037 BKN060 23.9 17.8 25.6 21.1 69% 25 76.58 1019.9
31 12:51 Vrbl 7 16.09 Mostly Cloudy BKN031 25.6 17.8 62% 27 76.58 1019.9
31 11:51 NE 9 16.09 Mostly Cloudy BKN110 23.9 18.3 71% 25 76.58 1020.1
31 10:51 Vrbl 7 16.09 Mostly Cloudy BKN060 23.3 17.8 71% 76.63 1020.5
31 09:51 E 9 16.09 A Few Clouds FEW120 22.2 17.2 73% 76.61 1020.3
31 08:51 Vrbl 7 16.09 A Few Clouds FEW060 21.7 17.2 76% 76.61 1020.2
31 07:51 Vrbl 6 16.09 Fair CLR 21.1 17.2 22.2 20.6 79% 76.58 1020.1
31 06:51 Vrbl 7 16.09 Overcast OVC065 21.1 17.2 79% 76.56 1019.6
31 05:51 Vrbl 9 16.09 Mostly Cloudy SCT060 BKN070 21.1 17.8 82% 76.5 1019.0
31 04:51 Calm 16.09 Overcast OVC100 21.1 17.2 79% 76.48 1018.6
31 03:51 Calm 16.09 Overcast BKN080 OVC095 21.7 17.2 76% 76.48 1018.7
31 02:51 Calm 16.09 Overcast SCT060 OVC095 21.1 18.3 84% 76.5 1018.8
31 01:51 Vrbl 6 16.09 Fair CLR 21.1 18.9 25.6 20.6 87% 76.48 1018.8 0.18
31 00:51 Vrbl 7 16.09 Mostly Cloudy BKN065 21.7 20 90% 76.5 1019.0
Date Time (edt) Wind (kph) Vis. (km) Weather Sky Cond. Air Dwpt Max. Min. Relative Humidity Wind Chill (°C) Heat Index (°C) altimeter (cm) sea level (mb) 1 hr 3 hr 6 hr
6 hour
Temperature (ºC) Pressure Precipitation (cm)